TimeEST,TemperatureF,Dew PointF,Humidity,Sea Level PressureIn,VisibilityMPH,Wind Direction,Wind SpeedMPH,Gust SpeedMPH,PrecipitationIn,Events,Conditions,WindDirDegrees,DateUTC
12:15 AM,25.0,20.7,84,30.35,10.0,Calm,Calm,-,N/A,,Clear,0,2012-12-06 05:15:00
12:35 AM,23.7,20.3,87,30.35,10.0,Calm,Calm,-,N/A,,Clear,0,2012-12-06 05:35:00
12:55 AM,23.9,20.1,85,30.34,10.0,Calm,Calm,-,N/A,,Clear,0,2012-12-06 05:55:00
1:15 AM,22.8,19.4,87,30.33,10.0,Calm,Calm,-,N/A,,Clear,0,2012-12-06 06:15:00
1:35 AM,23.5,20.3,87,30.31,10.0,ESE,3.5,-,N/A,,Clear,110,2012-12-06 06:35:00
1:55 AM,24.3,21.0,87,30.31,10.0,Calm,Calm,-,N/A,,Clear,0,2012-12-06 06:55:00
2:15 AM,23.0,19.4,86,30.31,10.0,Calm,Calm,-,N/A,,Clear,0,2012-12-06 07:15:00
2:35 AM,23.5,19.9,86,30.32,10.0,Calm,Calm,-,N/A,,Clear,0,2012-12-06 07:35:00
2:55 AM,23.5,20.3,87,30.31,10.0,Calm,Calm,-,N/A,,Clear,0,2012-12-06 07:55:00
3:15 AM,23.7,20.7,88,30.31,10.0,Calm,Calm,-,N/A,,Clear,0,2012-12-06 08:15:00
3:35 AM,23.2,20.3,89,30.31,10.0,Calm,Calm,-,N/A,,Clear,0,2012-12-06 08:35:00
3:55 AM,23.2,20.3,89,30.29,10.0,Calm,Calm,-,N/A,,Clear,0,2012-12-06 08:55:00
4:15 AM,23.5,20.5,88,30.29,10.0,Calm,Calm,-,N/A,,Clear,0,2012-12-06 09:15:00
4:35 AM,22.8,19.9,89,30.28,5.0,Calm,Calm,-,N/A,,Clear,0,2012-12-06 09:35:00
4:55 AM,23.7,20.8,89,30.28,7.0,ESE,3.5,-,N/A,,Clear,120,2012-12-06 09:55:00
5:15 AM,25.0,21.9,88,30.28,10.0,Calm,Calm,-,N/A,,Clear,0,2012-12-06 10:15:00
5:35 AM,24.8,21.2,86,30.28,10.0,Calm,Calm,-,N/A,,Clear,0,2012-12-06 10:35:00
5:55 AM,25.5,21.6,85,30.27,10.0,Calm,Calm,-,N/A,,Clear,0,2012-12-06 10:55:00
6:15 AM,25.9,22.5,87,30.27,10.0,Calm,Calm,-,N/A,,Clear,0,2012-12-06 11:15:00
6:35 AM,27.7,22.6,81,30.28,10.0,Calm,Calm,-,N/A,,Clear,0,2012-12-06 11:35:00
6:55 AM,27.9,22.3,80,30.28,10.0,Calm,Calm,-,N/A,,Clear,0,2012-12-06 11:55:00
7:15 AM,25.3,20.8,83,30.27,10.0,SE,3.5,-,N/A,,Clear,130,2012-12-06 12:15:00
7:35 AM,26.6,21.7,82,30.26,10.0,SSE,3.5,-,N/A,,Clear,150,2012-12-06 12:35:00
7:55 AM,27.3,22.3,81,30.25,10.0,ESE,3.5,-,N/A,,Clear,110,2012-12-06 12:55:00
8:15 AM,29.1,23.0,78,30.24,10.0,SE,3.5,-,N/A,,Clear,130,2012-12-06 13:15:00
8:35 AM,30.6,23.7,76,30.23,10.0,SE,5.8,-,N/A,,Clear,130,2012-12-06 13:35:00
8:55 AM,32.0,23.9,72,30.22,10.0,SE,6.9,-,N/A,,Clear,140,2012-12-06 13:55:00
9:15 AM,32.0,24.4,74,30.20,10.0,SE,5.8,-,N/A,,Clear,130,2012-12-06 14:15:00
9:35 AM,32.5,24.4,72,30.21,10.0,SE,5.8,-,N/A,,Clear,130,2012-12-06 14:35:00
9:55 AM,33.4,24.1,69,30.21,10.0,SSE,9.2,-,N/A,,Clear,150,2012-12-06 14:55:00
10:15 AM,34.0,24.6,69,30.21,10.0,SSE,9.2,-,N/A,,Clear,150,2012-12-06 15:15:00
10:35 AM,34.3,25.0,69,30.21,10.0,South,8.1,-,N/A,,Clear,180,2012-12-06 15:35:00
10:55 AM,34.2,24.4,68,30.21,10.0,South,5.8,-,N/A,,Clear,170,2012-12-06 15:55:00
11:15 AM,34.9,24.8,67,30.20,10.0,South,6.9,-,N/A,,Clear,170,2012-12-06 16:15:00
11:35 AM,35.4,25.2,66,30.19,10.0,SSW,4.6,-,N/A,,Clear,200,2012-12-06 16:35:00
11:55 AM,35.2,24.8,66,30.18,10.0,South,5.8,-,N/A,,Clear,190,2012-12-06 16:55:00
12:15 PM,36.0,25.2,65,30.16,10.0,South,5.8,-,N/A,,Clear,170,2012-12-06 17:15:00
12:35 PM,37.4,25.3,62,30.15,10.0,SW,4.6,-,N/A,,Clear,230,2012-12-06 17:35:00
12:55 PM,38.3,25.3,60,30.13,10.0,South,3.5,-,N/A,,Clear,180,2012-12-06 17:55:00
1:15 PM,38.1,25.3,60,30.12,10.0,SSE,3.5,-,N/A,,Clear,160,2012-12-06 18:15:00
1:35 PM,38.3,25.7,61,30.10,10.0,South,5.8,-,N/A,,Clear,180,2012-12-06 18:35:00
1:55 PM,37.6,26.1,63,30.09,10.0,SSE,4.6,-,N/A,,Clear,160,2012-12-06 18:55:00
2:15 PM,37.8,26.4,64,30.09,10.0,South,3.5,-,N/A,,Clear,190,2012-12-06 19:15:00
2:35 PM,37.9,26.8,64,30.09,10.0,SSW,4.6,-,N/A,,Clear,200,2012-12-06 19:35:00
2:55 PM,38.1,27.3,65,30.08,10.0,South,3.5,-,N/A,,Clear,180,2012-12-06 19:55:00
3:15 PM,37.9,27.5,66,30.07,10.0,Calm,Calm,-,N/A,,Clear,0,2012-12-06 20:15:00
3:35 PM,38.3,27.5,65,30.06,10.0,SE,4.6,-,N/A,,Clear,130,2012-12-06 20:35:00
3:55 PM,38.3,27.7,66,30.06,10.0,SE,3.5,-,N/A,,Clear,130,2012-12-06 20:55:00
4:15 PM,37.9,27.9,67,30.06,10.0,SSE,4.6,-,N/A,,Clear,150,2012-12-06 21:15:00
4:35 PM,37.8,28.2,68,30.06,10.0,Calm,Calm,-,N/A,,Clear,0,2012-12-06 21:35:00
4:55 PM,37.6,28.2,69,30.05,10.0,Calm,Calm,-,N/A,,Clear,0,2012-12-06 21:55:00
5:15 PM,37.0,28.8,72,30.05,10.0,Calm,Calm,-,N/A,,Clear,0,2012-12-06 22:15:00
5:35 PM,36.5,28.9,74,30.05,10.0,Calm,Calm,-,N/A,,Clear,0,2012-12-06 22:35:00
5:55 PM,35.4,28.8,77,30.05,10.0,Calm,Calm,-,N/A,,Clear,0,2012-12-06 22:55:00
6:15 PM,34.7,28.9,79,30.04,10.0,SE,3.5,-,N/A,,Clear,130,2012-12-06 23:15:00
6:35 PM,35.2,28.8,77,30.03,10.0,SE,4.6,-,N/A,,Clear,140,2012-12-06 23:35:00
6:55 PM,36.3,29.3,76,30.03,10.0,SE,3.5,-,N/A,,Clear,140,2012-12-06 23:55:00
7:15 PM,36.7,29.3,75,30.03,10.0,SE,4.6,-,N/A,,Clear,130,2012-12-07 00:15:00
7:35 PM,37.6,29.3,72,30.02,10.0,SE,3.5,-,N/A,,Clear,140,2012-12-07 00:35:00
7:55 PM,37.8,29.3,72,30.02,10.0,SE,4.6,-,N/A,,Clear,130,2012-12-07 00:55:00
8:15 PM,37.6,29.3,72,30.02,10.0,SE,3.5,-,N/A,,Clear,130,2012-12-07 01:15:00
8:35 PM,37.4,29.3,73,30.01,10.0,SE,4.6,-,N/A,,Clear,130,2012-12-07 01:35:00
8:55 PM,37.6,29.3,72,30.00,10.0,Calm,Calm,-,N/A,,Clear,0,2012-12-07 01:55:00
9:15 PM,37.4,29.3,73,30.00,10.0,SE,3.5,-,N/A,,Clear,140,2012-12-07 02:15:00
9:35 PM,37.4,29.3,73,30.00,10.0,SE,3.5,-,N/A,,Clear,140,2012-12-07 02:35:00
9:55 PM,37.6,29.5,73,29.99,10.0,SSE,3.5,-,N/A,,Scattered Clouds,150,2012-12-07 02:55:00
10:15 PM,37.9,29.7,72,29.98,10.0,Calm,Calm,-,N/A,,Scattered Clouds,0,2012-12-07 03:15:00
10:35 PM,38.3,29.8,72,29.98,10.0,Calm,Calm,-,N/A,,Scattered Clouds,0,2012-12-07 03:35:00
10:55 PM,38.1,30.0,73,29.99,10.0,Calm,Calm,-,N/A,,Scattered Clouds,0,2012-12-07 03:55:00
11:15 PM,37.9,30.2,74,29.99,10.0,Calm,Calm,-,N/A,,Clear,0,2012-12-07 04:15:00
11:35 PM,37.0,30.2,76,29.98,10.0,Calm,Calm,-,N/A,,Clear,0,2012-12-07 04:35:00
11:55 PM,37.4,30.7,77,29.97,10.0,South,3.5,-,N/A,,Clear,170,2012-12-07 04:55:00